createdAt,value
2023-12-02T00:02:21.001Z,-1.00
2023-12-02T00:06:25.135Z,-1.00
2023-12-02T00:10:28.155Z,-1.00
2023-12-02T00:14:31.917Z,-1.10
2023-12-02T00:18:34.813Z,-1.10
2023-12-02T00:22:39.032Z,-1.10
2023-12-02T00:26:41.830Z,-1.10
2023-12-02T00:30:46.805Z,-1.10
2023-12-02T00:34:49.956Z,-1.10
2023-12-02T00:38:54.184Z,-1.20
2023-12-02T00:42:57.149Z,-1.20
2023-12-02T00:47:02.446Z,-1.20
2023-12-02T00:51:05.757Z,-1.20
2023-12-02T00:55:10.731Z,-1.20
2023-12-02T00:59:13.528Z,-1.20
2023-12-02T01:03:16.442Z,-1.20
2023-12-02T01:07:20.345Z,-1.20
2023-12-02T01:11:24.482Z,-1.20
2023-12-02T01:15:27.382Z,-1.20
2023-12-02T01:19:33.244Z,-1.20
2023-12-02T01:23:37.975Z,-1.20
2023-12-02T01:27:42.264Z,-1.20
2023-12-02T01:31:45.159Z,-1.20
2023-12-02T01:35:48.068Z,-1.20
2023-12-02T01:39:51.032Z,-1.20
2023-12-02T01:43:55.465Z,-1.20
2023-12-02T01:47:58.937Z,-1.20
2023-12-02T01:52:05.911Z,-1.20
2023-12-02T01:56:10.020Z,-1.20
2023-12-02T02:00:15.750Z,-1.20
2023-12-02T02:04:19.486Z,-1.20
2023-12-02T02:08:50.667Z,-1.20
2023-12-02T02:12:55.158Z,-1.20
2023-12-02T02:17:02.041Z,-1.20
2023-12-02T02:21:05.296Z,-1.20
2023-12-02T02:25:11.342Z,-1.20
2023-12-02T02:29:14.206Z,-1.20
2023-12-02T02:33:19.051Z,-1.20
2023-12-02T02:37:21.868Z,-1.20
2023-12-02T02:41:26.238Z,-1.20
2023-12-02T02:45:29.156Z,-1.20
2023-12-02T02:49:32.338Z,-1.20
2023-12-02T02:53:35.168Z,-1.20
2023-12-02T02:57:43.485Z,-1.20
2023-12-02T03:01:48.315Z,-1.20
2023-12-02T03:05:51.360Z,-1.30
2023-12-02T03:09:54.103Z,-1.20
2023-12-02T03:13:58.597Z,-1.20
2023-12-02T03:18:02.492Z,-1.20
2023-12-02T03:22:06.390Z,-1.30
2023-12-02T03:26:09.611Z,-1.30
2023-12-02T03:30:14.769Z,-1.30
2023-12-02T03:34:23.244Z,-1.30
2023-12-02T03:38:26.617Z,-1.30
2023-12-02T03:42:29.932Z,-1.30
2023-12-02T03:46:37.766Z,-1.30
2023-12-02T03:50:48.137Z,-1.30
2023-12-02T03:54:59.185Z,-1.30
2023-12-02T04:04:55.454Z,-1.30
2023-12-02T04:08:59.738Z,-1.30
2023-12-02T04:13:18.243Z,-1.30
2023-12-02T04:22:25.714Z,-1.40
2023-12-02T04:26:39.589Z,-1.40
2023-12-02T04:30:44.725Z,-1.40
2023-12-02T04:34:47.522Z,-1.40
2023-12-02T04:38:53.861Z,-1.50
2023-12-02T04:42:56.699Z,-1.40
2023-12-02T04:46:59.570Z,-1.50
2023-12-02T04:51:05.365Z,-1.50
2023-12-02T04:55:11.562Z,-1.50
2023-12-02T04:59:14.306Z,-1.50
2023-12-02T05:03:18.759Z,-1.50
2023-12-02T05:07:21.876Z,-1.50
2023-12-02T05:11:29.061Z,-1.50
2023-12-02T05:15:32.335Z,-1.50
2023-12-02T05:19:37.175Z,-1.50
2023-12-02T05:23:42.318Z,-1.50
2023-12-02T05:27:46.443Z,-1.50
2023-12-02T05:31:49.336Z,-1.60
2023-12-02T05:35:52.395Z,-1.50
2023-12-02T05:39:55.375Z,-1.50
2023-12-02T05:43:59.474Z,-1.50
2023-12-02T05:48:02.423Z,-1.50
2023-12-02T05:52:05.708Z,-1.50
2023-12-02T05:56:10.083Z,-1.50
2023-12-02T06:00:17.750Z,-1.50
2023-12-02T06:04:20.880Z,-1.50
2023-12-02T06:08:23.682Z,-1.50
2023-12-02T06:12:28.521Z,-1.50
2023-12-02T06:16:32.674Z,-1.60
2023-12-02T06:20:35.428Z,-1.60
2023-12-02T06:24:38.335Z,-1.60
2023-12-02T06:28:41.733Z,-1.60
2023-12-02T06:32:46.035Z,-1.70
2023-12-02T06:36:49.024Z,-1.60
2023-12-02T06:40:55.852Z,-1.70
2023-12-02T06:44:58.816Z,-1.60
2023-12-02T06:49:03.279Z,-1.60
2023-12-02T06:53:06.248Z,-1.60
2023-12-02T06:57:09.950Z,-1.50
2023-12-02T07:01:13.008Z,-1.50
2023-12-02T07:05:39.520Z,-1.50
2023-12-02T07:09:42.422Z,-1.50
2023-12-02T07:13:45.690Z,-1.50
2023-12-02T07:17:48.525Z,-1.50
2023-12-02T07:21:52.884Z,-1.50
2023-12-02T07:25:55.701Z,-1.50
2023-12-02T07:34:04.297Z,-1.40
2023-12-02T07:38:08.486Z,-1.30
2023-12-02T07:42:11.364Z,-1.30
2023-12-02T07:46:14.295Z,-1.30
2023-12-02T07:50:17.889Z,-1.30
2023-12-02T07:54:22.134Z,-1.20
2023-12-02T07:58:24.964Z,-1.20
2023-12-02T08:02:27.969Z,-1.20
2023-12-02T08:06:30.957Z,-1.20
2023-12-02T08:10:35.084Z,-1.20
2023-12-02T08:14:38.178Z,-1.20
2023-12-02T08:18:40.949Z,-1.20
2023-12-02T08:22:43.856Z,-1.20
2023-12-02T08:26:48.464Z,-1.20
2023-12-02T08:30:51.256Z,-1.20
2023-12-02T08:34:54.200Z,-1.10
2023-12-02T08:38:57.043Z,-1.10
2023-12-02T08:43:01.195Z,-1.10
2023-12-02T08:47:04.047Z,-1.10
2023-12-02T08:51:07.756Z,-1.00
2023-12-02T08:55:13.359Z,-1.00
2023-12-02T08:59:18.727Z,-1.00
2023-12-02T09:03:21.557Z,-1.00
2023-12-02T09:07:24.357Z,-1.00
2023-12-02T09:11:27.248Z,-1.00
2023-12-02T09:15:39.727Z,-1.00
2023-12-02T09:19:55.012Z,-1.00
2023-12-02T09:24:01.014Z,-0.90
2023-12-02T09:28:20.753Z,-0.90
2023-12-02T09:32:48.169Z,-0.90
2023-12-02T09:36:51.057Z,-0.90
2023-12-02T09:41:15.096Z,-0.80
2023-12-02T09:45:19.276Z,-0.80
2023-12-02T09:49:40.608Z,-0.90
2023-12-02T09:53:55.540Z,-0.80
2023-12-02T09:58:09.248Z,-0.80
2023-12-02T10:02:23.347Z,-0.80
2023-12-02T10:06:45.676Z,-0.80
2023-12-02T10:11:03.255Z,-0.80
2023-12-02T10:15:08.082Z,-0.90
2023-12-02T10:19:14.272Z,-0.80
2023-12-02T10:23:26.228Z,-0.80
2023-12-02T10:27:31.658Z,-0.70
2023-12-02T10:31:37.864Z,-0.60
2023-12-02T10:35:45.165Z,-0.50
2023-12-02T10:39:54.046Z,-0.50
2023-12-02T10:43:58.235Z,-0.50
2023-12-02T10:48:02.301Z,-0.50
2023-12-02T10:56:22.336Z,-0.60
2023-12-02T11:00:28.148Z,-0.60
2023-12-02T11:04:36.894Z,-0.60
2023-12-02T11:08:49.782Z,-0.60
2023-12-02T11:12:57.322Z,-0.50
2023-12-02T11:17:08.845Z,-0.40
2023-12-02T11:21:23.416Z,-0.40
2023-12-02T11:25:36.219Z,-0.40
2023-12-02T11:29:50.821Z,-0.30
2023-12-02T11:34:13.600Z,-0.30
2023-12-02T11:38:19.384Z,-0.30
2023-12-02T11:42:23.954Z,-0.30
2023-12-02T11:46:36.694Z,-0.30
2023-12-02T11:50:52.095Z,-0.30
2023-12-02T11:55:09.634Z,-0.30
2023-12-02T11:59:17.501Z,-0.30
2023-12-02T12:03:57.111Z,-0.30
2023-12-02T12:08:11.456Z,-0.30
2023-12-02T12:12:16.335Z,-0.40
2023-12-02T12:16:21.111Z,-0.40
2023-12-02T12:20:27.935Z,-0.50
2023-12-02T12:24:30.853Z,-0.50
2023-12-02T12:28:33.731Z,-0.60
2023-12-02T12:32:37.001Z,-0.50
2023-12-02T12:36:42.740Z,-0.50
2023-12-02T12:40:47.017Z,-0.50
2023-12-02T12:44:49.883Z,-0.50
2023-12-02T12:48:53.285Z,-0.50
2023-12-02T12:53:04.766Z,-0.40
2023-12-02T12:57:16.759Z,-0.50
2023-12-02T13:01:20.795Z,-0.50
2023-12-02T13:05:26.305Z,-0.50
2023-12-02T13:09:33.308Z,-0.50
2023-12-02T13:13:39.928Z,-0.60
2023-12-02T13:17:47.346Z,-0.60
2023-12-02T13:21:50.686Z,-0.60
2023-12-02T13:25:59.011Z,-0.50
2023-12-02T13:30:07.095Z,-0.50
2023-12-02T13:34:23.602Z,-0.60
2023-12-02T13:38:30.961Z,-0.60
2023-12-02T13:42:39.825Z,-0.60
2023-12-02T13:46:49.821Z,-0.60
2023-12-02T13:51:00.868Z,-0.60
2023-12-02T13:55:23.677Z,-0.60
2023-12-02T13:59:39.472Z,-0.60
2023-12-02T14:03:57.610Z,-0.60
2023-12-02T14:08:02.979Z,-0.60
2023-12-02T14:12:18.713Z,-0.70
2023-12-02T14:16:40.844Z,-0.70
2023-12-02T14:20:55.265Z,-0.70
2023-12-02T14:25:24.569Z,-0.70
2023-12-02T14:29:50.788Z,-0.70
2023-12-02T14:34:17.236Z,-0.70
2023-12-02T14:38:35.363Z,-0.70
2023-12-02T14:42:54.669Z,-0.70
2023-12-02T14:46:58.533Z,-0.70
2023-12-02T14:51:04.930Z,-0.70
2023-12-02T14:55:09.433Z,-0.70
2023-12-02T14:59:13.491Z,-0.70
2023-12-02T15:03:37.516Z,-0.70
2023-12-02T15:07:48.960Z,-0.70
2023-12-02T15:16:34.729Z,-0.70
2023-12-02T15:20:37.482Z,-0.70
2023-12-02T15:24:46.888Z,-0.70
2023-12-02T15:28:51.310Z,-0.80
2023-12-02T15:32:54.193Z,-0.70
2023-12-02T15:36:57.120Z,-0.70
2023-12-02T15:41:01.350Z,-0.70
2023-12-02T15:45:04.299Z,-0.70
2023-12-02T15:49:09.014Z,-0.70
2023-12-02T15:53:13.865Z,-0.70
2023-12-02T15:57:18.756Z,-0.70
2023-12-02T16:01:22.229Z,-0.70
2023-12-02T16:05:26.548Z,-0.70
2023-12-02T16:09:29.854Z,-0.70
2023-12-02T16:13:40.121Z,-0.70
2023-12-02T16:17:43.716Z,-0.70
2023-12-02T16:21:50.018Z,-0.70
2023-12-02T16:25:53.468Z,-0.70
2023-12-02T16:30:01.031Z,-0.70
2023-12-02T16:34:06.908Z,-0.70
2023-12-02T16:38:09.831Z,-0.70
2023-12-02T16:42:13.965Z,-0.60
2023-12-02T16:46:21.493Z,-0.60
2023-12-02T16:50:29.666Z,-0.60
2023-12-02T16:54:34.485Z,-0.60
2023-12-02T16:58:37.933Z,-0.60
2023-12-02T17:02:42.238Z,-0.60
2023-12-02T17:06:47.151Z,-0.60
2023-12-02T17:10:57.419Z,-0.50
2023-12-02T17:15:07.985Z,-0.60
2023-12-02T17:19:13.671Z,-0.60
2023-12-02T17:23:16.946Z,-0.50
2023-12-02T17:27:41.369Z,-0.50
2023-12-02T17:31:44.298Z,-0.50
2023-12-02T17:35:48.604Z,-0.50
2023-12-02T17:39:51.390Z,-0.50
2023-12-02T17:43:54.894Z,-0.50
2023-12-02T17:47:57.848Z,-0.50
2023-12-02T17:52:02.882Z,-0.50
2023-12-02T17:56:06.779Z,-0.50
2023-12-02T18:00:13.255Z,-0.50
2023-12-02T18:04:16.251Z,-0.50
2023-12-02T18:08:20.669Z,-0.50
2023-12-02T18:12:25.567Z,-0.50
2023-12-02T18:16:29.234Z,-0.50
2023-12-02T18:20:34.244Z,-0.40
2023-12-02T18:24:45.578Z,-0.40
2023-12-02T18:28:48.546Z,-0.40
2023-12-02T18:32:51.379Z,-0.40
2023-12-02T18:36:56.983Z,-0.40
2023-12-02T18:41:01.181Z,-0.40
2023-12-02T18:45:05.903Z,-0.30
2023-12-02T18:49:09.128Z,-0.30
2023-12-02T18:53:12.906Z,-0.30
2023-12-02T18:57:17.106Z,-0.30
2023-12-02T19:01:19.976Z,-0.30
2023-12-02T19:05:22.787Z,-0.30
2023-12-02T19:09:25.631Z,-0.20
2023-12-02T19:13:33.953Z,-0.20
2023-12-02T19:18:10.485Z,-0.20
2023-12-02T19:22:15.148Z,-0.20
2023-12-02T19:26:18.896Z,-0.20
2023-12-02T19:30:23.820Z,-0.20
2023-12-02T19:34:29.108Z,-0.10
2023-12-02T19:38:32.213Z,-0.10
2023-12-02T19:42:35.278Z,-0.10
2023-12-02T19:46:39.408Z,-0.10
2023-12-02T19:50:42.243Z,-0.10
2023-12-02T19:54:47.999Z,-0.10
2023-12-02T19:58:53.827Z,-0.10
2023-12-02T20:02:58.276Z,-0.10
2023-12-02T20:07:01.276Z,-0.10
2023-12-02T20:11:04.869Z,-0.10
2023-12-02T20:15:11.339Z,-0.10
2023-12-02T20:19:15.947Z,-0.10
2023-12-02T20:23:28.037Z,-0.10
2023-12-02T20:27:32.554Z,-0.10
2023-12-02T20:31:37.409Z,-0.10
2023-12-02T20:35:41.602Z,-0.10
2023-12-02T20:39:45.200Z,-0.10
2023-12-02T20:43:48.787Z,-0.10
2023-12-02T20:47:51.790Z,-0.10
2023-12-02T20:51:58.310Z,-0.10
2023-12-02T20:56:15.976Z,-0.10
2023-12-02T21:00:19.576Z,-0.10
2023-12-02T21:04:22.579Z,-0.10
2023-12-02T21:08:30.245Z,-0.10
2023-12-02T21:12:38.214Z,-0.10
2023-12-02T21:16:41.776Z,-0.10
2023-12-02T21:20:44.888Z,-0.10
2023-12-02T21:24:49.203Z,-0.10
2023-12-02T21:28:54.763Z,-0.10
2023-12-02T21:32:58.084Z,-0.10
2023-12-02T21:37:04.988Z,-0.10
2023-12-02T21:41:10.530Z,-0.10
2023-12-02T21:45:34.737Z,-0.10
2023-12-02T21:49:43.791Z,0.00
2023-12-02T21:53:52.455Z,0.00
2023-12-02T21:57:58.030Z,0.00
2023-12-02T22:02:21.823Z,0.00
2023-12-02T22:06:53.747Z,0.00
2023-12-02T22:10:59.148Z,0.00
2023-12-02T22:15:21.673Z,0.00
2023-12-02T22:19:26.806Z,0.00
2023-12-02T22:23:29.645Z,0.10
2023-12-02T22:27:41.210Z,0.10
2023-12-02T22:31:45.419Z,0.10
2023-12-02T22:35:56.753Z,0.10
2023-12-02T22:39:59.547Z,0.10
2023-12-02T22:44:04.081Z,0.10
2023-12-02T22:48:16.450Z,0.10
2023-12-02T22:52:19.519Z,0.10
2023-12-02T22:56:23.102Z,0.10
2023-12-02T23:00:32.726Z,0.10
2023-12-02T23:04:39.188Z,0.20
2023-12-02T23:08:42.193Z,0.20
2023-12-02T23:12:48.322Z,0.20
2023-12-02T23:16:51.293Z,0.10
2023-12-02T23:20:55.358Z,0.10
2023-12-02T23:24:58.271Z,0.10
2023-12-02T23:29:01.738Z,0.10
2023-12-02T23:33:05.041Z,0.20
2023-12-02T23:37:10.118Z,0.20
2023-12-02T23:41:14.289Z,0.10
2023-12-02T23:45:17.192Z,0.20
2023-12-02T23:49:20.176Z,0.20
2023-12-02T23:53:24.700Z,0.20
2023-12-02T23:57:28.700Z,0.20
